createdAt,value
2022-12-22T00:10:23.344Z,2.0
2022-12-22T00:24:23.396Z,1.9
2022-12-22T00:38:23.399Z,1.9
2022-12-22T00:52:23.361Z,1.7
2022-12-22T01:06:23.369Z,1.7
2022-12-22T01:20:23.424Z,1.9
2022-12-22T01:34:23.404Z,1.2
2022-12-22T01:48:23.391Z,1.0
2022-12-22T02:02:23.579Z,1.4
2022-12-22T02:16:23.427Z,1.3
2022-12-22T02:30:23.554Z,1.0
2022-12-22T02:44:23.400Z,0.8
2022-12-22T02:58:23.423Z,0.4
2022-12-22T03:12:23.404Z,0.4
2022-12-22T03:26:23.421Z,0.5
2022-12-22T03:40:23.485Z,0.9
2022-12-22T03:54:23.500Z,0.7
2022-12-22T04:08:23.509Z,1.1
2022-12-22T04:22:23.531Z,1.4
2022-12-22T04:36:23.557Z,1.0
2022-12-22T04:50:23.687Z,1.1
2022-12-22T05:04:24.056Z,1.6
2022-12-22T05:18:23.678Z,2.0
2022-12-22T05:32:23.674Z,2.1
2022-12-22T05:46:23.801Z,1.8
2022-12-22T06:00:23.761Z,1.8
2022-12-22T06:14:23.741Z,2.6
2022-12-22T06:28:23.755Z,2.6
2022-12-22T06:42:23.770Z,2.3
2022-12-22T06:57:23.763Z,2.3
2022-12-22T07:12:23.763Z,2.1
2022-12-22T07:27:23.794Z,1.7
2022-12-22T07:42:23.801Z,1.5
2022-12-22T07:57:23.805Z,1.5
2022-12-22T08:12:23.811Z,2.0
2022-12-22T08:27:26.075Z,3.0
2022-12-22T08:42:23.865Z,3.9
2022-12-22T08:57:23.881Z,5.4
2022-12-22T09:12:23.855Z,6.0
2022-12-22T09:27:23.899Z,6.3
2022-12-22T09:42:23.954Z,7.6
2022-12-22T09:57:23.947Z,8.2
2022-12-22T10:12:23.936Z,8.2
2022-12-22T10:27:28.596Z,8.4
2022-12-22T10:42:23.927Z,8.8
2022-12-22T10:57:23.926Z,8.5
2022-12-22T11:12:23.938Z,8.2
2022-12-22T11:27:23.941Z,8.6
2022-12-22T11:42:23.951Z,8.7
2022-12-22T11:57:23.974Z,8.5
2022-12-22T12:12:23.987Z,8.6
2022-12-22T12:27:24.000Z,8.6
2022-12-22T12:42:24.015Z,8.7
2022-12-22T12:57:24.057Z,9.6
2022-12-22T13:13:24.099Z,9.9
2022-12-22T13:29:24.077Z,9.3
2022-12-22T13:44:24.143Z,7.9
2022-12-22T13:59:24.130Z,7.5
2022-12-22T14:14:24.170Z,7.5
2022-12-22T14:20:14.818Z,7.3
2022-12-22T14:25:12.463Z,7.3
2022-12-22T14:40:12.543Z,6.5
2022-12-22T14:55:12.642Z,6.2
2022-12-22T15:10:15.476Z,6.0
2022-12-22T15:25:12.599Z,6.2
2022-12-22T15:40:12.536Z,6.2
2022-12-22T15:55:12.663Z,6.0
2022-12-22T16:10:12.708Z,5.8
2022-12-22T16:24:12.658Z,5.9
2022-12-22T16:38:18.120Z,6.0
2022-12-22T16:52:12.732Z,5.8
2022-12-22T17:06:12.753Z,5.7
2022-12-22T17:20:12.792Z,5.9
2022-12-22T17:34:13.281Z,5.9
2022-12-22T17:48:13.733Z,5.9
2022-12-22T18:02:13.168Z,5.3
2022-12-22T18:16:13.173Z,4.8
2022-12-22T18:30:13.228Z,4.3
2022-12-22T18:44:13.253Z,3.7
2022-12-22T18:58:13.237Z,3.8
2022-12-22T19:12:13.353Z,4.1
2022-12-22T19:26:13.395Z,4.2
2022-12-22T19:40:13.402Z,4.2
2022-12-22T19:54:13.409Z,4.3
2022-12-22T20:08:13.469Z,4.4
2022-12-22T20:22:13.541Z,4.6
2022-12-22T20:36:13.689Z,4.8
2022-12-22T20:50:13.567Z,5.3
2022-12-22T21:04:13.567Z,5.4
2022-12-22T21:18:13.611Z,5.2
2022-12-22T21:32:13.547Z,5.1
2022-12-22T21:46:13.707Z,5.0
2022-12-22T22:00:13.617Z,5.0
2022-12-22T22:14:13.586Z,5.0
2022-12-22T22:28:13.619Z,5.1
2022-12-22T22:42:13.591Z,5.3
2022-12-22T22:56:13.593Z,5.3
2022-12-22T23:10:13.662Z,5.3
2022-12-22T23:24:13.647Z,5.2
2022-12-22T23:38:13.685Z,5.2
2022-12-22T23:52:13.689Z,5.2
